sensor_id;sensor_type;location;lat;lon;timestamp;temperature;humidity
674;DHT22;319;48.764;9.174;2023-07-28T00:01:55;19.50;99.90
674;DHT22;319;48.764;9.174;2023-07-28T00:04:22;19.50;99.90
674;DHT22;319;48.764;9.174;2023-07-28T00:06:49;19.40;99.90
674;DHT22;319;48.764;9.174;2023-07-28T00:09:15;19.40;99.90
674;DHT22;319;48.764;9.174;2023-07-28T00:11:42;19.30;99.90
674;DHT22;319;48.764;9.174;2023-07-28T00:14:11;19.40;99.90
674;DHT22;319;48.764;9.174;2023-07-28T00:16:38;19.40;99.90
674;DHT22;319;48.764;9.174;2023-07-28T00:19:05;19.30;99.90
674;DHT22;319;48.764;9.174;2023-07-28T00:21:32;19.30;99.90
674;DHT22;319;48.764;9.174;2023-07-28T00:23:59;19.30;99.90
674;DHT22;319;48.764;9.174;2023-07-28T00:26:26;19.20;99.90
674;DHT22;319;48.764;9.174;2023-07-28T00:28:53;19.20;99.90
674;DHT22;319;48.764;9.174;2023-07-28T00:31:21;19.20;99.90
674;DHT22;319;48.764;9.174;2023-07-28T00:33:48;19.20;99.90
674;DHT22;319;48.764;9.174;2023-07-28T00:36:15;19.20;99.90
674;DHT22;319;48.764;9.174;2023-07-28T00:38:45;19.10;99.90
674;DHT22;319;48.764;9.174;2023-07-28T00:41:12;19.10;99.90
674;DHT22;319;48.764;9.174;2023-07-28T00:43:38;19.00;99.90
674;DHT22;319;48.764;9.174;2023-07-28T00:46:05;19.00;99.90
674;DHT22;319;48.764;9.174;2023-07-28T00:48:33;19.00;99.90
674;DHT22;319;48.764;9.174;2023-07-28T00:51:01;19.00;99.90
674;DHT22;319;48.764;9.174;2023-07-28T00:53:29;19.00;99.90
674;DHT22;319;48.764;9.174;2023-07-28T00:55:56;19.00;99.90
674;DHT22;319;48.764;9.174;2023-07-28T00:58:23;19.00;99.90
674;DHT22;319;48.764;9.174;2023-07-28T01:00:50;19.00;99.90
674;DHT22;319;48.764;9.174;2023-07-28T01:03:18;19.00;99.90
674;DHT22;319;48.764;9.174;2023-07-28T01:05:55;18.90;99.90
674;DHT22;319;48.764;9.174;2023-07-28T01:08:29;18.90;99.90
674;DHT22;319;48.764;9.174;2023-07-28T01:10:56;18.90;99.90
674;DHT22;319;48.764;9.174;2023-07-28T01:13:23;18.90;99.90
674;DHT22;319;48.764;9.174;2023-07-28T01:15:50;18.90;99.90
674;DHT22;319;48.764;9.174;2023-07-28T01:18:17;18.90;99.90
674;DHT22;319;48.764;9.174;2023-07-28T01:20:45;18.90;99.90
674;DHT22;319;48.764;9.174;2023-07-28T01:23:18;18.90;99.90
674;DHT22;319;48.764;9.174;2023-07-28T01:25:55;18.90;99.90
674;DHT22;319;48.764;9.174;2023-07-28T01:28:27;18.90;99.90
674;DHT22;319;48.764;9.174;2023-07-28T01:30:55;18.90;99.90
674;DHT22;319;48.764;9.174;2023-07-28T01:33:22;18.90;99.90
674;DHT22;319;48.764;9.174;2023-07-28T01:35:49;18.90;99.90
674;DHT22;319;48.764;9.174;2023-07-28T01:38:16;18.90;99.90
674;DHT22;319;48.764;9.174;2023-07-28T01:40:43;18.80;99.90
674;DHT22;319;48.764;9.174;2023-07-28T01:43:10;18.80;99.90
674;DHT22;319;48.764;9.174;2023-07-28T01:45:38;18.80;99.90
674;DHT22;319;48.764;9.174;2023-07-28T01:48:05;18.70;99.90
674;DHT22;319;48.764;9.174;2023-07-28T01:50:34;18.70;99.90
674;DHT22;319;48.764;9.174;2023-07-28T01:53:01;18.70;99.90
674;DHT22;319;48.764;9.174;2023-07-28T01:55:28;18.80;99.90
674;DHT22;319;48.764;9.174;2023-07-28T01:57:57;18.90;99.90
674;DHT22;319;48.764;9.174;2023-07-28T02:00:24;18.80;99.90
674;DHT22;319;48.764;9.174;2023-07-28T02:02:53;18.80;99.90
674;DHT22;319;48.764;9.174;2023-07-28T02:05:23;18.90;99.90
674;DHT22;319;48.764;9.174;2023-07-28T02:07:51;18.90;99.90
674;DHT22;319;48.764;9.174;2023-07-28T02:10:18;19.00;99.90
674;DHT22;319;48.764;9.174;2023-07-28T02:12:45;19.00;99.90
674;DHT22;319;48.764;9.174;2023-07-28T02:15:12;19.00;99.90
674;DHT22;319;48.764;9.174;2023-07-28T02:17:39;19.00;99.90
674;DHT22;319;48.764;9.174;2023-07-28T02:20:08;19.00;99.90
674;DHT22;319;48.764;9.174;2023-07-28T02:22:38;19.00;99.90
674;DHT22;319;48.764;9.174;2023-07-28T02:25:06;19.00;99.90
674;DHT22;319;48.764;9.174;2023-07-28T02:27:33;19.00;99.90
674;DHT22;319;48.764;9.174;2023-07-28T02:30:00;19.00;99.90
674;DHT22;319;48.764;9.174;2023-07-28T02:32:28;19.00;99.90
674;DHT22;319;48.764;9.174;2023-07-28T02:34:55;19.00;99.90
674;DHT22;319;48.764;9.174;2023-07-28T02:37:23;19.10;99.90
674;DHT22;319;48.764;9.174;2023-07-28T02:39:51;19.10;99.90
674;DHT22;319;48.764;9.174;2023-07-28T02:42:18;19.20;99.90
674;DHT22;319;48.764;9.174;2023-07-28T02:44:45;19.10;99.90
674;DHT22;319;48.764;9.174;2023-07-28T02:47:12;19.20;99.90
674;DHT22;319;48.764;9.174;2023-07-28T02:49:41;19.20;99.90
674;DHT22;319;48.764;9.174;2023-07-28T02:52:08;19.20;99.90
674;DHT22;319;48.764;9.174;2023-07-28T02:54:36;19.20;99.90
674;DHT22;319;48.764;9.174;2023-07-28T02:57:03;19.30;99.90
674;DHT22;319;48.764;9.174;2023-07-28T02:59:30;19.30;99.90
674;DHT22;319;48.764;9.174;2023-07-28T03:01:57;19.40;99.90
674;DHT22;319;48.764;9.174;2023-07-28T03:04:24;19.40;99.90
674;DHT22;319;48.764;9.174;2023-07-28T03:06:51;19.50;99.90
674;DHT22;319;48.764;9.174;2023-07-28T03:09:18;19.50;99.90
674;DHT22;319;48.764;9.174;2023-07-28T03:11:46;19.50;99.90
674;DHT22;319;48.764;9.174;2023-07-28T03:14:13;19.50;99.90
674;DHT22;319;48.764;9.174;2023-07-28T03:16:40;19.50;99.90
674;DHT22;319;48.764;9.174;2023-07-28T03:19:07;19.50;99.90
674;DHT22;319;48.764;9.174;2023-07-28T03:21:34;19.50;99.90
674;DHT22;319;48.764;9.174;2023-07-28T03:24:01;19.50;99.90
674;DHT22;319;48.764;9.174;2023-07-28T03:26:28;19.50;99.90
674;DHT22;319;48.764;9.174;2023-07-28T03:28:56;19.50;99.90
674;DHT22;319;48.764;9.174;2023-07-28T03:31:23;19.50;99.90
674;DHT22;319;48.764;9.174;2023-07-28T03:33:50;19.50;99.90
674;DHT22;319;48.764;9.174;2023-07-28T03:36:17;19.50;99.90
674;DHT22;319;48.764;9.174;2023-07-28T03:38:45;19.50;99.90
674;DHT22;319;48.764;9.174;2023-07-28T03:41:12;19.50;99.90
674;DHT22;319;48.764;9.174;2023-07-28T03:43:40;19.50;99.90
674;DHT22;319;48.764;9.174;2023-07-28T03:46:08;19.50;99.90
674;DHT22;319;48.764;9.174;2023-07-28T03:48:35;19.40;99.90
674;DHT22;319;48.764;9.174;2023-07-28T03:51:02;19.30;99.90
674;DHT22;319;48.764;9.174;2023-07-28T03:53:29;19.30;99.90
674;DHT22;319;48.764;9.174;2023-07-28T03:55:56;19.30;99.90
674;DHT22;319;48.764;9.174;2023-07-28T03:58:24;19.30;99.90
674;DHT22;319;48.764;9.174;2023-07-28T04:00:51;19.30;99.90
674;DHT22;319;48.764;9.174;2023-07-28T04:03:20;19.30;99.90
674;DHT22;319;48.764;9.174;2023-07-28T04:05:47;19.30;99.90
674;DHT22;319;48.764;9.174;2023-07-28T04:08:14;19.40;99.90
674;DHT22;319;48.764;9.174;2023-07-28T04:10:41;19.30;99.90
674;DHT22;319;48.764;9.174;2023-07-28T04:13:08;19.30;99.90
674;DHT22;319;48.764;9.174;2023-07-28T04:15:35;19.30;99.90
674;DHT22;319;48.764;9.174;2023-07-28T04:18:02;19.40;99.90
674;DHT22;319;48.764;9.174;2023-07-28T04:20:30;19.40;99.90
674;DHT22;319;48.764;9.174;2023-07-28T04:22:57;19.40;99.90
674;DHT22;319;48.764;9.174;2023-07-28T04:25:24;19.50;99.90
674;DHT22;319;48.764;9.174;2023-07-28T04:27:51;19.50;99.90
674;DHT22;319;48.764;9.174;2023-07-28T04:30:18;19.60;99.90
674;DHT22;319;48.764;9.174;2023-07-28T04:32:45;19.70;99.90
674;DHT22;319;48.764;9.174;2023-07-28T04:35:12;19.80;99.90
674;DHT22;319;48.764;9.174;2023-07-28T04:37:41;19.90;99.90
674;DHT22;319;48.764;9.174;2023-07-28T04:40:08;19.90;99.90
674;DHT22;319;48.764;9.174;2023-07-28T04:42:35;20.00;99.90
674;DHT22;319;48.764;9.174;2023-07-28T04:45:03;20.00;99.90
674;DHT22;319;48.764;9.174;2023-07-28T04:47:30;19.90;99.90
674;DHT22;319;48.764;9.174;2023-07-28T04:49:57;19.90;99.90
674;DHT22;319;48.764;9.174;2023-07-28T04:52:24;19.90;99.90
674;DHT22;319;48.764;9.174;2023-07-28T04:54:53;19.80;99.90
674;DHT22;319;48.764;9.174;2023-07-28T04:57:20;19.80;99.90
674;DHT22;319;48.764;9.174;2023-07-28T04:59:47;19.80;99.90
674;DHT22;319;48.764;9.174;2023-07-28T05:02:13;19.90;99.90
674;DHT22;319;48.764;9.174;2023-07-28T05:04:40;19.90;99.90
674;DHT22;319;48.764;9.174;2023-07-28T05:07:07;19.90;99.90
674;DHT22;319;48.764;9.174;2023-07-28T05:09:34;19.80;99.90
674;DHT22;319;48.764;9.174;2023-07-28T05:12:03;19.70;99.90
674;DHT22;319;48.764;9.174;2023-07-28T05:14:30;19.60;99.90
674;DHT22;319;48.764;9.174;2023-07-28T05:16:57;19.60;99.90
674;DHT22;319;48.764;9.174;2023-07-28T05:19:24;19.60;99.90
674;DHT22;319;48.764;9.174;2023-07-28T05:21:50;19.60;99.90
674;DHT22;319;48.764;9.174;2023-07-28T05:24:17;19.60;99.90
674;DHT22;319;48.764;9.174;2023-07-28T05:26:44;19.50;99.90
674;DHT22;319;48.764;9.174;2023-07-28T05:29:12;19.50;99.90
674;DHT22;319;48.764;9.174;2023-07-28T05:31:40;19.50;99.90
674;DHT22;319;48.764;9.174;2023-07-28T05:34:07;19.50;99.90
674;DHT22;319;48.764;9.174;2023-07-28T05:36:34;19.50;99.90
674;DHT22;319;48.764;9.174;2023-07-28T05:39:01;19.50;99.90
674;DHT22;319;48.764;9.174;2023-07-28T05:41:28;19.50;99.90
674;DHT22;319;48.764;9.174;2023-07-28T05:46:24;19.70;99.90
674;DHT22;319;48.764;9.174;2023-07-28T05:48:53;19.70;99.90
674;DHT22;319;48.764;9.174;2023-07-28T05:51:20;19.70;99.90
674;DHT22;319;48.764;9.174;2023-07-28T05:53:47;19.60;99.90
674;DHT22;319;48.764;9.174;2023-07-28T05:56:14;19.60;99.90
674;DHT22;319;48.764;9.174;2023-07-28T05:58:41;19.60;99.90
674;DHT22;319;48.764;9.174;2023-07-28T06:01:08;19.60;99.90
674;DHT22;319;48.764;9.174;2023-07-28T06:03:36;19.60;99.90
674;DHT22;319;48.764;9.174;2023-07-28T06:06:03;19.60;99.90
674;DHT22;319;48.764;9.174;2023-07-28T06:08:29;19.60;99.90
674;DHT22;319;48.764;9.174;2023-07-28T06:10:56;19.60;99.90
674;DHT22;319;48.764;9.174;2023-07-28T06:13:23;19.60;99.90
674;DHT22;319;48.764;9.174;2023-07-28T06:15:53;19.60;99.90
674;DHT22;319;48.764;9.174;2023-07-28T06:18:20;19.60;99.90
674;DHT22;319;48.764;9.174;2023-07-28T06:20:49;19.60;99.90
674;DHT22;319;48.764;9.174;2023-07-28T06:23:18;19.60;99.90
674;DHT22;319;48.764;9.174;2023-07-28T06:25:45;19.60;99.90
674;DHT22;319;48.764;9.174;2023-07-28T06:28:12;19.50;99.90
674;DHT22;319;48.764;9.174;2023-07-28T06:30:39;19.50;99.90
674;DHT22;319;48.764;9.174;2023-07-28T06:33:09;19.50;99.90
674;DHT22;319;48.764;9.174;2023-07-28T06:35:36;19.60;99.90
674;DHT22;319;48.764;9.174;2023-07-28T06:38:05;19.60;99.90
674;DHT22;319;48.764;9.174;2023-07-28T06:40:32;19.70;99.90
674;DHT22;319;48.764;9.174;2023-07-28T06:42:59;19.60;99.90
674;DHT22;319;48.764;9.174;2023-07-28T06:45:26;19.70;99.90
674;DHT22;319;48.764;9.174;2023-07-28T06:47:53;19.80;99.90
674;DHT22;319;48.764;9.174;2023-07-28T06:50:19;19.80;99.90
674;DHT22;319;48.764;9.174;2023-07-28T06:52:46;19.90;99.90
674;DHT22;319;48.764;9.174;2023-07-28T06:55:17;19.90;99.90
674;DHT22;319;48.764;9.174;2023-07-28T06:57:44;20.00;99.90
674;DHT22;319;48.764;9.174;2023-07-28T07:00:20;20.10;99.90
674;DHT22;319;48.764;9.174;2023-07-28T07:02:57;20.20;99.90
674;DHT22;319;48.764;9.174;2023-07-28T07:05:24;20.40;99.90
674;DHT22;319;48.764;9.174;2023-07-28T07:07:51;20.60;99.90
674;DHT22;319;48.764;9.174;2023-07-28T07:10:19;20.70;99.90
674;DHT22;319;48.764;9.174;2023-07-28T07:12:47;20.90;99.90
674;DHT22;319;48.764;9.174;2023-07-28T07:15:17;21.10;99.90
674;DHT22;319;48.764;9.174;2023-07-28T07:17:44;21.20;99.90
674;DHT22;319;48.764;9.174;2023-07-28T07:20:34;21.20;99.90
674;DHT22;319;48.764;9.174;2023-07-28T07:23:07;21.30;99.90
674;DHT22;319;48.764;9.174;2023-07-28T07:25:38;21.40;99.90
674;DHT22;319;48.764;9.174;2023-07-28T07:28:06;21.50;99.90
674;DHT22;319;48.764;9.174;2023-07-28T07:30:35;21.60;99.90
674;DHT22;319;48.764;9.174;2023-07-28T07:33:25;21.90;99.90
674;DHT22;319;48.764;9.174;2023-07-28T07:36:11;22.30;99.90
674;DHT22;319;48.764;9.174;2023-07-28T07:38:39;22.30;99.90
674;DHT22;319;48.764;9.174;2023-07-28T07:41:07;22.40;99.90
674;DHT22;319;48.764;9.174;2023-07-28T07:43:41;22.70;99.90
674;DHT22;319;48.764;9.174;2023-07-28T07:46:08;22.90;99.90
674;DHT22;319;48.764;9.174;2023-07-28T07:48:35;23.30;99.90
674;DHT22;319;48.764;9.174;2023-07-28T07:51:03;23.50;99.90
674;DHT22;319;48.764;9.174;2023-07-28T07:53:30;23.80;99.90
674;DHT22;319;48.764;9.174;2023-07-28T07:55:57;24.00;99.90
674;DHT22;319;48.764;9.174;2023-07-28T07:58:26;24.10;99.90
674;DHT22;319;48.764;9.174;2023-07-28T08:00:53;24.10;99.90
674;DHT22;319;48.764;9.174;2023-07-28T08:03:21;24.00;99.90
674;DHT22;319;48.764;9.174;2023-07-28T08:05:51;24.00;99.90
674;DHT22;319;48.764;9.174;2023-07-28T08:08:22;23.90;99.90
674;DHT22;319;48.764;9.174;2023-07-28T08:10:49;23.90;99.90
674;DHT22;319;48.764;9.174;2023-07-28T08:13:20;23.90;99.90
674;DHT22;319;48.764;9.174;2023-07-28T08:15:51;23.90;99.90
674;DHT22;319;48.764;9.174;2023-07-28T08:18:29;23.90;99.90
674;DHT22;319;48.764;9.174;2023-07-28T08:20:56;23.90;99.90
674;DHT22;319;48.764;9.174;2023-07-28T08:23:23;23.90;99.90
674;DHT22;319;48.764;9.174;2023-07-28T08:25:50;24.00;99.90
674;DHT22;319;48.764;9.174;2023-07-28T08:28:17;23.90;99.90
674;DHT22;319;48.764;9.174;2023-07-28T08:30:43;23.80;99.90
674;DHT22;319;48.764;9.174;2023-07-28T08:33:12;23.80;99.90
674;DHT22;319;48.764;9.174;2023-07-28T08:35:39;23.70;99.90
674;DHT22;319;48.764;9.174;2023-07-28T08:38:07;23.90;99.90
674;DHT22;319;48.764;9.174;2023-07-28T08:40:34;24.10;99.90
674;DHT22;319;48.764;9.174;2023-07-28T08:43:01;24.40;99.90
674;DHT22;319;48.764;9.174;2023-07-28T08:45:28;24.60;99.90
674;DHT22;319;48.764;9.174;2023-07-28T08:47:55;24.80;99.60
674;DHT22;319;48.764;9.174;2023-07-28T08:50:23;24.90;99.50
674;DHT22;319;48.764;9.174;2023-07-28T08:52:50;24.90;99.20
674;DHT22;319;48.764;9.174;2023-07-28T08:55:18;24.80;98.90
674;DHT22;319;48.764;9.174;2023-07-28T08:57:44;24.70;99.20
674;DHT22;319;48.764;9.174;2023-07-28T09:00:13;24.80;99.00
674;DHT22;319;48.764;9.174;2023-07-28T09:02:40;24.80;98.90
674;DHT22;319;48.764;9.174;2023-07-28T09:05:17;24.80;99.30
674;DHT22;319;48.764;9.174;2023-07-28T09:08:02;24.90;99.20
674;DHT22;319;48.764;9.174;2023-07-28T09:10:40;25.00;98.80
674;DHT22;319;48.764;9.174;2023-07-28T09:13:12;25.10;98.70
674;DHT22;319;48.764;9.174;2023-07-28T09:15:39;25.30;98.80
674;DHT22;319;48.764;9.174;2023-07-28T09:18:11;25.40;98.30
674;DHT22;319;48.764;9.174;2023-07-28T09:20:39;25.40;97.90
674;DHT22;319;48.764;9.174;2023-07-28T09:23:08;25.30;97.50
674;DHT22;319;48.764;9.174;2023-07-28T09:25:38;25.10;97.70
674;DHT22;319;48.764;9.174;2023-07-28T09:28:05;24.90;98.00
674;DHT22;319;48.764;9.174;2023-07-28T09:30:48;24.70;98.50
674;DHT22;319;48.764;9.174;2023-07-28T09:33:29;24.50;99.00
674;DHT22;319;48.764;9.174;2023-07-28T09:35:56;24.60;99.50
674;DHT22;319;48.764;9.174;2023-07-28T09:38:27;24.70;99.60
674;DHT22;319;48.764;9.174;2023-07-28T09:40:59;24.70;99.40
674;DHT22;319;48.764;9.174;2023-07-28T09:43:26;24.70;99.70
674;DHT22;319;48.764;9.174;2023-07-28T09:46:19;24.70;99.80
674;DHT22;319;48.764;9.174;2023-07-28T09:48:48;24.70;99.80
674;DHT22;319;48.764;9.174;2023-07-28T09:51:23;24.50;99.90
674;DHT22;319;48.764;9.174;2023-07-28T09:53:58;24.50;99.90
674;DHT22;319;48.764;9.174;2023-07-28T09:56:36;24.60;99.80
674;DHT22;319;48.764;9.174;2023-07-28T09:59:08;24.70;99.30
674;DHT22;319;48.764;9.174;2023-07-28T10:01:37;24.70;99.20
674;DHT22;319;48.764;9.174;2023-07-28T10:04:05;24.90;98.80
674;DHT22;319;48.764;9.174;2023-07-28T10:06:32;24.90;98.80
674;DHT22;319;48.764;9.174;2023-07-28T10:09:01;25.00;98.60
674;DHT22;319;48.764;9.174;2023-07-28T10:11:29;25.00;98.40
674;DHT22;319;48.764;9.174;2023-07-28T10:13:57;25.00;98.20
674;DHT22;319;48.764;9.174;2023-07-28T10:16:37;25.10;98.30
674;DHT22;319;48.764;9.174;2023-07-28T10:19:04;25.30;98.10
674;DHT22;319;48.764;9.174;2023-07-28T10:21:31;25.30;97.70
674;DHT22;319;48.764;9.174;2023-07-28T10:24:00;25.30;98.20
674;DHT22;319;48.764;9.174;2023-07-28T10:26:33;25.40;97.90
674;DHT22;319;48.764;9.174;2023-07-28T10:29:12;25.60;97.50
674;DHT22;319;48.764;9.174;2023-07-28T10:31:52;25.50;97.30
674;DHT22;319;48.764;9.174;2023-07-28T10:34:21;25.70;97.10
674;DHT22;319;48.764;9.174;2023-07-28T10:36:56;25.80;97.10
674;DHT22;319;48.764;9.174;2023-07-28T10:39:28;25.90;97.00
674;DHT22;319;48.764;9.174;2023-07-28T10:42:04;25.90;96.80
674;DHT22;319;48.764;9.174;2023-07-28T10:44:32;26.00;96.40
674;DHT22;319;48.764;9.174;2023-07-28T10:47:00;26.00;96.00
674;DHT22;319;48.764;9.174;2023-07-28T10:49:27;26.10;96.10
674;DHT22;319;48.764;9.174;2023-07-28T10:51:55;26.10;95.80
674;DHT22;319;48.764;9.174;2023-07-28T10:54:22;26.00;95.80
674;DHT22;319;48.764;9.174;2023-07-28T11:22:54;27.40;91.90
674;DHT22;319;48.764;9.174;2023-07-28T11:25:22;27.50;91.60
674;DHT22;319;48.764;9.174;2023-07-28T11:27:50;27.70;91.40
674;DHT22;319;48.764;9.174;2023-07-28T11:30:18;27.60;91.10
674;DHT22;319;48.764;9.174;2023-07-28T11:32:47;27.80;90.70
674;DHT22;319;48.764;9.174;2023-07-28T11:35:16;27.60;90.60
674;DHT22;319;48.764;9.174;2023-07-28T11:37:51;27.70;90.60
674;DHT22;319;48.764;9.174;2023-07-28T11:40:27;27.70;90.40
674;DHT22;319;48.764;9.174;2023-07-28T11:42:55;27.70;90.70
674;DHT22;319;48.764;9.174;2023-07-28T11:45:22;27.80;90.90
674;DHT22;319;48.764;9.174;2023-07-28T11:47:56;28.00;90.30
674;DHT22;319;48.764;9.174;2023-07-28T11:50:25;28.00;89.80
674;DHT22;319;48.764;9.174;2023-07-28T11:52:52;28.00;90.00
674;DHT22;319;48.764;9.174;2023-07-28T11:55:20;27.90;89.90
674;DHT22;319;48.764;9.174;2023-07-28T11:57:49;27.90;89.70
674;DHT22;319;48.764;9.174;2023-07-28T12:00:28;27.70;89.50
674;DHT22;319;48.764;9.174;2023-07-28T12:03:04;27.40;89.60
674;DHT22;319;48.764;9.174;2023-07-28T12:05:35;27.20;90.30
674;DHT22;319;48.764;9.174;2023-07-28T12:08:08;27.00;91.00
674;DHT22;319;48.764;9.174;2023-07-28T12:10:36;26.60;91.80
674;DHT22;319;48.764;9.174;2023-07-28T12:13:11;26.20;92.80
674;DHT22;319;48.764;9.174;2023-07-28T12:15:50;25.70;93.40
674;DHT22;319;48.764;9.174;2023-07-28T12:18:29;25.50;94.00
674;DHT22;319;48.764;9.174;2023-07-28T12:20:56;25.50;94.30
674;DHT22;319;48.764;9.174;2023-07-28T12:23:28;25.40;94.30
674;DHT22;319;48.764;9.174;2023-07-28T12:25:58;25.40;94.90
674;DHT22;319;48.764;9.174;2023-07-28T12:28:30;25.30;95.30
674;DHT22;319;48.764;9.174;2023-07-28T12:31:07;25.30;95.00
674;DHT22;319;48.764;9.174;2023-07-28T12:33:41;25.50;95.10
674;DHT22;319;48.764;9.174;2023-07-28T12:36:19;25.80;95.10
674;DHT22;319;48.764;9.174;2023-07-28T12:38:47;26.10;94.50
674;DHT22;319;48.764;9.174;2023-07-28T12:41:14;26.30;94.10
674;DHT22;319;48.764;9.174;2023-07-28T12:43:46;26.40;93.40
674;DHT22;319;48.764;9.174;2023-07-28T12:46:16;26.50;93.30
674;DHT22;319;48.764;9.174;2023-07-28T12:48:54;26.60;92.80
674;DHT22;319;48.764;9.174;2023-07-28T12:51:23;26.90;92.70
674;DHT22;319;48.764;9.174;2023-07-28T12:53:52;27.10;92.30
674;DHT22;319;48.764;9.174;2023-07-28T12:56:20;27.50;92.10
674;DHT22;319;48.764;9.174;2023-07-28T12:58:50;27.70;91.40
674;DHT22;319;48.764;9.174;2023-07-28T13:01:20;27.90;91.00
674;DHT22;319;48.764;9.174;2023-07-28T13:03:50;27.90;91.00
674;DHT22;319;48.764;9.174;2023-07-28T13:06:21;27.90;91.00
674;DHT22;319;48.764;9.174;2023-07-28T13:08:52;27.90;90.90
674;DHT22;319;48.764;9.174;2023-07-28T13:11:19;27.60;91.20
674;DHT22;319;48.764;9.174;2023-07-28T13:13:48;27.40;92.00
674;DHT22;319;48.764;9.174;2023-07-28T13:16:16;27.30;91.90
674;DHT22;319;48.764;9.174;2023-07-28T13:18:44;27.20;92.30
674;DHT22;319;48.764;9.174;2023-07-28T13:21:12;26.90;92.50
674;DHT22;319;48.764;9.174;2023-07-28T13:23:40;26.80;92.90
674;DHT22;319;48.764;9.174;2023-07-28T13:26:08;26.70;93.40
674;DHT22;319;48.764;9.174;2023-07-28T13:28:35;26.40;94.10
674;DHT22;319;48.764;9.174;2023-07-28T13:34:04;25.70;96.90
674;DHT22;319;48.764;9.174;2023-07-28T13:36:48;25.30;98.10
674;DHT22;319;48.764;9.174;2023-07-28T13:39:15;24.70;99.20
674;DHT22;319;48.764;9.174;2023-07-28T13:41:42;24.30;99.90
674;DHT22;319;48.764;9.174;2023-07-28T13:44:09;24.00;99.90
674;DHT22;319;48.764;9.174;2023-07-28T13:46:36;23.60;99.90
674;DHT22;319;48.764;9.174;2023-07-28T13:49:04;23.20;99.90
674;DHT22;319;48.764;9.174;2023-07-28T13:51:32;22.90;99.90
674;DHT22;319;48.764;9.174;2023-07-28T13:53:59;22.70;99.90
674;DHT22;319;48.764;9.174;2023-07-28T13:56:26;22.50;99.90
674;DHT22;319;48.764;9.174;2023-07-28T13:58:53;22.30;99.90
674;DHT22;319;48.764;9.174;2023-07-28T14:01:20;22.10;99.90
674;DHT22;319;48.764;9.174;2023-07-28T14:03:47;21.90;99.90
674;DHT22;319;48.764;9.174;2023-07-28T14:06:15;21.60;99.90
674;DHT22;319;48.764;9.174;2023-07-28T14:08:42;21.40;99.90
674;DHT22;319;48.764;9.174;2023-07-28T14:11:10;21.20;99.90
674;DHT22;319;48.764;9.174;2023-07-28T14:13:37;21.00;99.90
674;DHT22;319;48.764;9.174;2023-07-28T14:16:04;20.80;99.90
674;DHT22;319;48.764;9.174;2023-07-28T14:18:31;20.80;99.90
674;DHT22;319;48.764;9.174;2023-07-28T14:20:58;20.70;99.90
674;DHT22;319;48.764;9.174;2023-07-28T14:23:27;20.70;99.90
674;DHT22;319;48.764;9.174;2023-07-28T14:25:55;20.60;99.90
674;DHT22;319;48.764;9.174;2023-07-28T14:28:23;20.80;99.90
674;DHT22;319;48.764;9.174;2023-07-28T14:30:50;20.80;99.90
674;DHT22;319;48.764;9.174;2023-07-28T14:33:18;20.90;99.90
674;DHT22;319;48.764;9.174;2023-07-28T14:35:47;21.00;99.90
674;DHT22;319;48.764;9.174;2023-07-28T14:38:14;21.00;99.90
674;DHT22;319;48.764;9.174;2023-07-28T14:40:43;21.10;99.90
674;DHT22;319;48.764;9.174;2023-07-28T14:43:14;21.20;99.90
674;DHT22;319;48.764;9.174;2023-07-28T14:45:41;21.30;99.90
674;DHT22;319;48.764;9.174;2023-07-28T14:48:08;21.20;99.90
674;DHT22;319;48.764;9.174;2023-07-28T14:50:35;21.30;99.90
674;DHT22;319;48.764;9.174;2023-07-28T14:53:02;21.30;99.90
674;DHT22;319;48.764;9.174;2023-07-28T14:55:29;21.30;99.90
674;DHT22;319;48.764;9.174;2023-07-28T14:57:57;21.40;99.90
674;DHT22;319;48.764;9.174;2023-07-28T15:00:24;21.40;99.90
674;DHT22;319;48.764;9.174;2023-07-28T15:02:51;21.40;99.90
674;DHT22;319;48.764;9.174;2023-07-28T15:05:18;21.40;99.90
674;DHT22;319;48.764;9.174;2023-07-28T15:07:45;21.40;99.90
674;DHT22;319;48.764;9.174;2023-07-28T15:10:12;21.50;99.90
674;DHT22;319;48.764;9.174;2023-07-28T15:12:39;21.50;99.90
674;DHT22;319;48.764;9.174;2023-07-28T15:15:09;21.60;99.90
674;DHT22;319;48.764;9.174;2023-07-28T15:17:36;21.70;99.90
674;DHT22;319;48.764;9.174;2023-07-28T15:20:04;21.70;99.90
674;DHT22;319;48.764;9.174;2023-07-28T15:22:31;21.90;99.90
674;DHT22;319;48.764;9.174;2023-07-28T15:24:58;22.10;99.90
674;DHT22;319;48.764;9.174;2023-07-28T15:27:26;22.30;99.90
674;DHT22;319;48.764;9.174;2023-07-28T15:29:53;22.50;99.90
674;DHT22;319;48.764;9.174;2023-07-28T15:32:21;22.60;99.90
674;DHT22;319;48.764;9.174;2023-07-28T15:34:48;22.70;99.90
674;DHT22;319;48.764;9.174;2023-07-28T15:37:15;22.80;99.90
674;DHT22;319;48.764;9.174;2023-07-28T15:39:42;22.90;99.90
674;DHT22;319;48.764;9.174;2023-07-28T15:42:09;22.90;99.90
674;DHT22;319;48.764;9.174;2023-07-28T15:44:36;22.80;99.90
674;DHT22;319;48.764;9.174;2023-07-28T15:47:03;22.70;99.90
674;DHT22;319;48.764;9.174;2023-07-28T15:49:32;22.60;99.90
674;DHT22;319;48.764;9.174;2023-07-28T15:51:59;22.40;99.90
674;DHT22;319;48.764;9.174;2023-07-28T15:54:26;22.40;99.90
674;DHT22;319;48.764;9.174;2023-07-28T15:56:53;22.30;99.90
674;DHT22;319;48.764;9.174;2023-07-28T15:59:20;22.30;99.90
674;DHT22;319;48.764;9.174;2023-07-28T16:01:47;22.30;99.90
674;DHT22;319;48.764;9.174;2023-07-28T16:04:15;22.20;99.90
674;DHT22;319;48.764;9.174;2023-07-28T16:06:43;22.20;99.90
674;DHT22;319;48.764;9.174;2023-07-28T16:09:10;22.20;99.90
674;DHT22;319;48.764;9.174;2023-07-28T16:11:37;22.20;99.90
674;DHT22;319;48.764;9.174;2023-07-28T16:14:04;22.20;99.90
674;DHT22;319;48.764;9.174;2023-07-28T16:16:31;22.10;99.90
674;DHT22;319;48.764;9.174;2023-07-28T16:18:58;22.10;99.90
674;DHT22;319;48.764;9.174;2023-07-28T16:21:25;22.00;99.90
674;DHT22;319;48.764;9.174;2023-07-28T16:23:53;22.10;99.90
674;DHT22;319;48.764;9.174;2023-07-28T16:26:20;22.00;99.90
674;DHT22;319;48.764;9.174;2023-07-28T16:28:48;22.00;99.90
674;DHT22;319;48.764;9.174;2023-07-28T16:31:15;22.00;99.90
674;DHT22;319;48.764;9.174;2023-07-28T16:33:42;21.90;99.90
674;DHT22;319;48.764;9.174;2023-07-28T16:36:09;21.90;99.90
674;DHT22;319;48.764;9.174;2023-07-28T16:38:36;21.90;99.90
674;DHT22;319;48.764;9.174;2023-07-28T16:41:04;21.90;99.90
674;DHT22;319;48.764;9.174;2023-07-28T16:43:31;21.90;99.90
674;DHT22;319;48.764;9.174;2023-07-28T16:45:58;21.80;99.90
674;DHT22;319;48.764;9.174;2023-07-28T16:48:25;21.80;99.90
674;DHT22;319;48.764;9.174;2023-07-28T16:50:52;21.70;99.90
674;DHT22;319;48.764;9.174;2023-07-28T16:53:19;21.70;99.90
674;DHT22;319;48.764;9.174;2023-07-28T16:55:46;21.70;99.90
674;DHT22;319;48.764;9.174;2023-07-28T16:58:15;21.70;99.90
674;DHT22;319;48.764;9.174;2023-07-28T17:00:42;21.60;99.90
674;DHT22;319;48.764;9.174;2023-07-28T17:03:09;21.60;99.90
674;DHT22;319;48.764;9.174;2023-07-28T17:05:36;21.60;99.90
674;DHT22;319;48.764;9.174;2023-07-28T17:08:03;21.60;99.90
674;DHT22;319;48.764;9.174;2023-07-28T17:10:30;21.60;99.90
674;DHT22;319;48.764;9.174;2023-07-28T17:12:57;21.60;99.90
674;DHT22;319;48.764;9.174;2023-07-28T17:15:25;21.70;99.90